createdAt,value
2022-08-20T00:00:14.385Z,25.72
2022-08-20T00:05:21.556Z,25.45
2022-08-20T00:10:24.068Z,25.39
2022-08-20T00:15:30.899Z,25.30
2022-08-20T00:20:36.848Z,25.31
2022-08-20T00:25:41.436Z,25.29
2022-08-20T00:30:45.149Z,25.27
2022-08-20T00:35:52.083Z,25.18
2022-08-20T00:40:57.502Z,25.17
2022-08-20T00:46:03.160Z,25.11
2022-08-20T00:51:11.189Z,25.05
2022-08-20T00:56:13.932Z,24.98
2022-08-20T01:01:16.408Z,24.98
2022-08-20T01:06:18.909Z,24.93
2022-08-20T01:11:23.047Z,24.93
2022-08-20T01:16:31.571Z,24.92
2022-08-20T01:21:34.457Z,24.95
2022-08-20T01:26:40.339Z,24.97
2022-08-20T01:31:43.291Z,24.92
2022-08-20T01:36:51.626Z,24.95
2022-08-20T01:41:57.184Z,25.00
2022-08-20T01:47:11.004Z,24.87
2022-08-20T01:52:29.726Z,24.91
2022-08-20T01:57:32.451Z,24.79
2022-08-20T02:02:34.965Z,24.80
2022-08-20T02:07:37.826Z,24.77
2022-08-20T02:12:40.305Z,24.72
2022-08-20T02:17:43.601Z,24.77
2022-08-20T02:22:53.175Z,24.68
2022-08-20T02:28:02.589Z,24.61
2022-08-20T02:33:06.389Z,24.49
2022-08-20T02:38:10.923Z,24.55
2022-08-20T02:43:15.002Z,24.60
2022-08-20T02:48:21.109Z,24.61
2022-08-20T02:53:28.173Z,24.51
2022-08-20T02:58:30.669Z,24.47
2022-08-20T03:03:33.379Z,24.40
2022-08-20T03:08:36.364Z,24.34
2022-08-20T03:13:38.954Z,24.39
2022-08-20T03:18:45.309Z,24.51
2022-08-20T03:23:47.905Z,24.64
2022-08-20T03:28:50.354Z,24.80
2022-08-20T03:33:53.823Z,24.96
2022-08-20T03:38:58.062Z,24.86
2022-08-20T03:44:00.642Z,24.90
2022-08-20T03:49:03.576Z,24.73
2022-08-20T03:54:06.673Z,24.77
2022-08-20T03:59:09.839Z,24.81
2022-08-20T04:04:12.904Z,24.82
2022-08-20T04:09:15.799Z,24.69
2022-08-20T04:14:19.502Z,24.82
2022-08-20T04:19:23.054Z,24.75
2022-08-20T04:24:31.621Z,24.28
2022-08-20T04:29:35.681Z,24.16
2022-08-20T04:34:38.775Z,24.76
2022-08-20T04:39:41.247Z,24.53
2022-08-20T04:44:43.847Z,24.46
2022-08-20T04:49:46.194Z,24.64
2022-08-20T04:54:48.853Z,24.49
2022-08-20T04:59:53.243Z,24.69
2022-08-20T05:04:57.929Z,25.04
2022-08-20T05:10:04.644Z,25.15
2022-08-20T05:15:07.408Z,25.18
2022-08-20T05:20:13.324Z,25.28
2022-08-20T05:25:15.829Z,25.41
2022-08-20T05:30:19.651Z,25.54
2022-08-20T05:35:23.317Z,25.69
2022-08-20T05:40:25.800Z,25.87
2022-08-20T05:45:28.686Z,25.87
2022-08-20T05:50:31.224Z,26.05
2022-08-20T05:55:33.810Z,25.96
2022-08-20T06:00:37.514Z,26.09
2022-08-20T06:05:40.123Z,26.24
2022-08-20T06:10:44.176Z,26.53
2022-08-20T06:15:46.806Z,26.85
2022-08-20T06:20:50.593Z,27.25
2022-08-20T06:25:53.342Z,27.75
2022-08-20T06:30:55.715Z,27.45
2022-08-20T06:35:58.181Z,27.67
2022-08-20T06:41:00.786Z,27.40
2022-08-20T06:46:03.239Z,27.69
2022-08-20T06:51:06.917Z,27.32
2022-08-20T06:56:09.382Z,27.14
2022-08-20T07:01:13.797Z,27.52
2022-08-20T07:06:17.042Z,27.53
2022-08-20T07:11:26.570Z,27.47
2022-08-20T07:16:30.082Z,27.39
2022-08-20T07:21:32.895Z,27.38
2022-08-20T07:26:35.539Z,27.21
2022-08-20T07:31:56.814Z,27.34
2022-08-20T07:37:00.634Z,27.43
2022-08-20T07:42:03.594Z,27.61
2022-08-20T07:47:06.604Z,27.78
2022-08-20T07:52:09.052Z,27.79
2022-08-20T07:57:12.201Z,27.88
2022-08-20T08:02:14.714Z,27.81
2022-08-20T08:07:17.727Z,27.77
2022-08-20T08:12:21.823Z,27.74
2022-08-20T08:17:24.376Z,27.94
2022-08-20T08:22:26.854Z,28.15
2022-08-20T08:27:34.391Z,28.21
2022-08-20T08:33:03.114Z,28.24
2022-08-20T08:38:05.749Z,28.54
2022-08-20T08:43:11.341Z,28.29
2022-08-20T08:48:18.653Z,28.51
2022-08-20T08:53:27.565Z,28.19
2022-08-20T08:58:30.178Z,28.13
2022-08-20T09:03:34.707Z,28.02
2022-08-20T09:08:48.065Z,27.94
2022-08-20T09:13:51.297Z,27.80
2022-08-20T09:18:53.734Z,27.81
2022-08-20T09:23:56.217Z,27.90
2022-08-20T09:28:59.453Z,28.27
2022-08-20T09:34:02.174Z,28.64
2022-08-20T09:39:04.646Z,28.83
2022-08-20T09:44:07.017Z,29.03
2022-08-20T09:49:09.469Z,28.89
2022-08-20T09:54:13.242Z,28.78
2022-08-20T09:59:16.896Z,28.79
2022-08-20T10:04:19.625Z,28.72
2022-08-20T10:09:22.069Z,29.19
2022-08-20T10:14:24.786Z,29.72
2022-08-20T10:19:28.060Z,29.39
2022-08-20T10:24:31.184Z,29.19
2022-08-20T10:29:36.845Z,29.32
2022-08-20T10:34:41.246Z,29.49
2022-08-20T10:39:43.869Z,30.06
2022-08-20T10:44:47.110Z,30.64
2022-08-20T10:49:51.772Z,30.65
2022-08-20T10:54:54.805Z,31.00
2022-08-20T10:59:59.806Z,31.33
2022-08-20T11:05:02.449Z,31.49
2022-08-20T11:10:09.323Z,31.14
2022-08-20T11:15:17.408Z,31.29
2022-08-20T11:20:21.509Z,31.41
2022-08-20T11:25:24.668Z,31.65
2022-08-20T11:30:32.639Z,31.15
2022-08-20T11:35:48.926Z,31.17
2022-08-20T11:40:52.215Z,31.05
2022-08-20T11:45:56.200Z,31.18
2022-08-20T11:50:58.657Z,31.74
2022-08-20T11:56:01.351Z,32.24
2022-08-20T12:01:03.899Z,32.19
2022-08-20T12:06:06.887Z,32.12
2022-08-20T12:11:10.160Z,31.77
2022-08-20T12:16:12.818Z,31.30
2022-08-20T12:21:15.677Z,31.46
2022-08-20T12:26:19.011Z,31.78
2022-08-20T12:31:21.498Z,32.75
2022-08-20T12:36:24.075Z,32.63
2022-08-20T12:41:26.548Z,32.04
2022-08-20T12:46:29.151Z,32.35
2022-08-20T12:51:31.620Z,32.65
2022-08-20T12:56:33.969Z,32.91
2022-08-20T13:01:36.423Z,32.75
2022-08-20T13:06:38.939Z,32.25
2022-08-20T13:11:41.792Z,32.55
2022-08-20T13:16:44.332Z,32.64
2022-08-20T13:21:46.980Z,32.74
2022-08-20T13:27:13.010Z,33.27
2022-08-20T13:32:15.620Z,33.07
2022-08-20T13:37:23.099Z,33.25
2022-08-20T13:42:28.337Z,32.21
2022-08-20T13:47:34.818Z,32.23
2022-08-20T13:52:38.150Z,32.13
2022-08-20T13:57:41.370Z,32.29
2022-08-20T14:02:44.318Z,32.39
2022-08-20T14:07:47.749Z,32.09
2022-08-20T14:12:50.319Z,31.91
2022-08-20T14:17:54.973Z,32.00
2022-08-20T14:22:58.300Z,32.19
2022-08-20T14:28:10.375Z,32.56
2022-08-20T14:33:12.870Z,32.30
2022-08-20T14:38:15.394Z,32.53
2022-08-20T14:43:17.957Z,32.43
2022-08-20T14:48:20.467Z,32.28
2022-08-20T14:55:49.222Z,32.69
2022-08-20T15:00:51.725Z,32.04
2022-08-20T15:05:54.215Z,32.55
2022-08-20T15:10:56.777Z,32.75
2022-08-20T15:15:59.260Z,32.38
2022-08-20T15:21:01.807Z,32.37
2022-08-20T15:26:05.636Z,31.98
2022-08-20T15:31:12.461Z,32.22
2022-08-20T15:36:15.104Z,32.34
2022-08-20T15:41:17.586Z,32.83
2022-08-20T15:46:20.095Z,32.56
2022-08-20T15:51:29.711Z,31.95
2022-08-20T15:56:59.739Z,32.12
2022-08-20T16:02:25.785Z,31.74
2022-08-20T16:07:58.358Z,31.61
2022-08-20T16:13:03.083Z,31.26
2022-08-20T16:18:09.432Z,31.21
2022-08-20T16:23:13.363Z,31.11
2022-08-20T16:28:28.242Z,30.80
2022-08-20T16:33:44.549Z,30.83
2022-08-20T16:39:01.394Z,30.54
2022-08-20T16:44:38.507Z,30.30
2022-08-20T16:49:47.070Z,30.07
2022-08-20T16:54:49.540Z,29.70
2022-08-20T17:00:19.177Z,29.71
2022-08-20T17:05:23.588Z,29.24
2022-08-20T17:10:30.177Z,29.28
2022-08-20T17:15:35.271Z,29.10
2022-08-20T17:20:44.959Z,28.78
2022-08-20T17:26:00.238Z,28.61
2022-08-20T17:31:03.050Z,28.35
2022-08-20T17:36:11.416Z,28.07
2022-08-20T17:41:22.090Z,27.87
2022-08-20T17:46:25.797Z,28.01
2022-08-20T17:51:33.346Z,27.91
2022-08-20T17:56:38.080Z,27.65
2022-08-20T18:01:40.595Z,27.59
2022-08-20T18:06:59.322Z,27.53
2022-08-20T18:12:37.952Z,27.34
2022-08-20T18:17:58.858Z,27.17
2022-08-20T18:23:11.244Z,27.06
2022-08-20T18:28:20.019Z,26.92
2022-08-20T18:33:48.583Z,27.32
2022-08-20T18:39:04.557Z,27.01
2022-08-20T18:44:07.115Z,26.87
2022-08-20T18:49:13.565Z,26.71
2022-08-20T18:54:29.564Z,26.47
2022-08-20T18:59:34.571Z,26.41
2022-08-20T19:04:38.149Z,25.84
2022-08-20T19:09:48.446Z,25.56
2022-08-20T19:15:13.231Z,25.46
2022-08-20T19:20:19.523Z,25.40
2022-08-20T19:25:31.018Z,25.26
2022-08-20T19:30:39.929Z,25.38
2022-08-20T19:35:42.611Z,25.18
2022-08-20T19:40:46.260Z,25.15
2022-08-20T19:45:51.793Z,25.10
2022-08-20T19:51:15.165Z,25.88
2022-08-20T19:56:21.121Z,25.81
2022-08-20T20:01:23.701Z,25.73
2022-08-20T20:06:27.162Z,25.76
2022-08-20T20:11:36.015Z,25.69
2022-08-20T20:16:39.919Z,25.69
2022-08-20T20:21:43.650Z,25.75
2022-08-20T20:26:48.099Z,25.83
2022-08-20T20:31:56.375Z,25.75
2022-08-20T20:37:13.324Z,25.87
2022-08-20T20:42:26.786Z,25.91
2022-08-20T20:47:32.479Z,25.90
2022-08-20T20:52:49.196Z,25.95
2022-08-20T20:57:52.232Z,25.94
2022-08-20T21:02:55.349Z,25.81
2022-08-20T21:08:00.808Z,25.64
2022-08-20T21:13:04.851Z,25.55
2022-08-20T21:18:09.217Z,25.37
2022-08-20T21:23:11.649Z,24.85
2022-08-20T21:28:14.120Z,24.20
2022-08-20T21:33:16.497Z,24.08
2022-08-20T21:38:19.236Z,24.07
2022-08-20T21:43:21.783Z,24.18
2022-08-20T21:48:25.793Z,24.31
2022-08-20T21:53:28.132Z,23.87
2022-08-20T21:58:30.721Z,23.45
2022-08-20T22:03:38.524Z,23.38
2022-08-20T22:08:41.660Z,23.45
2022-08-20T22:13:44.883Z,23.89
2022-08-20T22:18:48.440Z,23.58
2022-08-20T22:23:51.833Z,23.58
2022-08-20T22:28:54.366Z,23.48
2022-08-20T22:33:58.176Z,23.33
2022-08-20T22:39:02.407Z,23.14
2022-08-20T22:44:05.625Z,23.09
2022-08-20T22:49:09.775Z,23.06
2022-08-20T22:54:13.665Z,23.02
2022-08-20T22:59:16.405Z,23.21
2022-08-20T23:04:27.402Z,23.13
2022-08-20T23:09:30.563Z,22.97
2022-08-20T23:14:33.815Z,22.95
2022-08-20T23:19:37.762Z,23.16
2022-08-20T23:24:40.635Z,23.02
2022-08-20T23:29:43.448Z,22.89
2022-08-20T23:34:46.051Z,22.88
2022-08-20T23:39:50.096Z,23.01
2022-08-20T23:44:52.610Z,22.93
2022-08-20T23:49:55.058Z,22.93
2022-08-20T23:54:57.428Z,22.86
2022-08-20T23:59:59.827Z,22.84
